sensor_id;sensor_type;location;lat;lon;timestamp;P1;durP1;ratioP1;P2;durP2;ratioP2
12163;SDS011;6145;50.192;10.064;2023-04-03T05:37:13;5.90;;;3.53;;
12163;SDS011;6145;50.192;10.064;2023-04-03T05:39:40;5.37;;;3.53;;
12163;SDS011;6145;50.192;10.064;2023-04-03T05:42:07;4.07;;;3.53;;
12163;SDS011;6145;50.192;10.064;2023-04-03T05:44:36;8.53;;;3.77;;
12163;SDS011;6145;50.192;10.064;2023-04-03T05:47:03;5.50;;;3.70;;
12163;SDS011;6145;50.192;10.064;2023-04-03T05:49:31;4.80;;;3.67;;
12163;SDS011;6145;50.192;10.064;2023-04-03T05:51:59;4.30;;;2.70;;
12163;SDS011;6145;50.192;10.064;2023-04-03T05:54:26;3.70;;;3.13;;
12163;SDS011;6145;50.192;10.064;2023-04-03T05:56:57;5.93;;;3.60;;
12163;SDS011;6145;50.192;10.064;2023-04-03T05:59:24;6.60;;;3.50;;
12163;SDS011;6145;50.192;10.064;2023-04-03T06:01:51;5.33;;;3.73;;
12163;SDS011;6145;50.192;10.064;2023-04-03T06:04:18;5.20;;;3.43;;
12163;SDS011;6145;50.192;10.064;2023-04-03T06:06:47;5.50;;;3.83;;
12163;SDS011;6145;50.192;10.064;2023-04-03T06:09:18;5.23;;;3.40;;
12163;SDS011;6145;50.192;10.064;2023-04-03T06:11:45;4.20;;;3.90;;
12163;SDS011;6145;50.192;10.064;2023-04-03T06:14:12;5.13;;;3.60;;
12163;SDS011;6145;50.192;10.064;2023-04-03T06:16:39;5.63;;;4.20;;
12163;SDS011;6145;50.192;10.064;2023-04-03T06:19:06;4.27;;;3.87;;
12163;SDS011;6145;50.192;10.064;2023-04-03T06:21:34;6.17;;;4.57;;
12163;SDS011;6145;50.192;10.064;2023-04-03T06:24:01;6.10;;;5.60;;
12163;SDS011;6145;50.192;10.064;2023-04-03T06:26:30;10.67;;;9.97;;
12163;SDS011;6145;50.192;10.064;2023-04-03T06:28:58;8.40;;;7.90;;
12163;SDS011;6145;50.192;10.064;2023-04-03T06:31:25;8.97;;;8.17;;
12163;SDS011;6145;50.192;10.064;2023-04-03T06:33:52;7.40;;;7.00;;
12163;SDS011;6145;50.192;10.064;2023-04-03T06:36:20;8.80;;;7.97;;
12163;SDS011;6145;50.192;10.064;2023-04-03T06:38:47;20.23;;;19.23;;
12163;SDS011;6145;50.192;10.064;2023-04-03T06:41:14;17.70;;;16.70;;
12163;SDS011;6145;50.192;10.064;2023-04-03T06:43:43;10.47;;;9.87;;
12163;SDS011;6145;50.192;10.064;2023-04-03T06:46:14;10.77;;;10.17;;
12163;SDS011;6145;50.192;10.064;2023-04-03T06:48:41;8.10;;;7.60;;
12163;SDS011;6145;50.192;10.064;2023-04-03T06:51:12;4.83;;;4.03;;
12163;SDS011;6145;50.192;10.064;2023-04-03T06:53:43;3.10;;;2.80;;
12163;SDS011;6145;50.192;10.064;2023-04-03T06:56:10;2.30;;;2.10;;
12163;SDS011;6145;50.192;10.064;2023-04-03T06:58:37;3.13;;;2.63;;
12163;SDS011;6145;50.192;10.064;2023-04-03T07:01:12;5.17;;;2.87;;
12163;SDS011;6145;50.192;10.064;2023-04-03T07:03:40;5.03;;;2.80;;
12163;SDS011;6145;50.192;10.064;2023-04-03T07:06:09;2.27;;;2.07;;
12163;SDS011;6145;50.192;10.064;2023-04-03T07:08:38;5.07;;;2.93;;
12163;SDS011;6145;50.192;10.064;2023-04-03T07:11:07;2.40;;;2.20;;
12163;SDS011;6145;50.192;10.064;2023-04-03T07:13:35;2.57;;;2.37;;
12163;SDS011;6145;50.192;10.064;2023-04-03T07:16:02;5.03;;;3.07;;
12163;SDS011;6145;50.192;10.064;2023-04-03T07:18:31;4.73;;;2.80;;
12163;SDS011;6145;50.192;10.064;2023-04-03T07:20:58;4.17;;;2.87;;
12163;SDS011;6145;50.192;10.064;2023-04-03T07:23:28;3.43;;;2.77;;
12163;SDS011;6145;50.192;10.064;2023-04-03T07:25:55;5.00;;;3.00;;
12163;SDS011;6145;50.192;10.064;2023-04-03T07:28:23;4.07;;;2.70;;
12163;SDS011;6145;50.192;10.064;2023-04-03T07:30:51;4.23;;;2.87;;
12163;SDS011;6145;50.192;10.064;2023-04-03T07:33:22;4.60;;;3.13;;
12163;SDS011;6145;50.192;10.064;2023-04-03T07:35:51;4.50;;;2.70;;
12163;SDS011;6145;50.192;10.064;2023-04-03T07:38:18;3.90;;;2.60;;
12163;SDS011;6145;50.192;10.064;2023-04-03T07:40:45;3.67;;;2.80;;
12163;SDS011;6145;50.192;10.064;2023-04-03T07:43:13;3.50;;;3.13;;
12163;SDS011;6145;50.192;10.064;2023-04-03T07:45:41;3.00;;;2.70;;
12163;SDS011;6145;50.192;10.064;2023-04-03T07:48:09;3.87;;;2.53;;
12163;SDS011;6145;50.192;10.064;2023-04-03T07:50:36;7.33;;;3.47;;
12163;SDS011;6145;50.192;10.064;2023-04-03T07:53:04;3.70;;;2.60;;
12163;SDS011;6145;50.192;10.064;2023-04-03T07:55:32;2.43;;;2.23;;
12163;SDS011;6145;50.192;10.064;2023-04-03T07:58:02;4.33;;;3.30;;
12163;SDS011;6145;50.192;10.064;2023-04-03T08:00:29;1.73;;;1.60;;
12163;SDS011;6145;50.192;10.064;2023-04-03T08:02:56;2.73;;;2.50;;
12163;SDS011;6145;50.192;10.064;2023-04-03T08:05:23;5.03;;;3.13;;
12163;SDS011;6145;50.192;10.064;2023-04-03T08:07:50;5.27;;;3.47;;
12163;SDS011;6145;50.192;10.064;2023-04-03T08:10:18;5.07;;;2.90;;
12163;SDS011;6145;50.192;10.064;2023-04-03T08:12:45;2.50;;;2.30;;
12163;SDS011;6145;50.192;10.064;2023-04-03T08:15:12;4.73;;;2.93;;
12163;SDS011;6145;50.192;10.064;2023-04-03T08:17:39;3.03;;;2.77;;
12163;SDS011;6145;50.192;10.064;2023-04-03T08:20:06;2.90;;;2.70;;
12163;SDS011;6145;50.192;10.064;2023-04-03T08:22:34;2.47;;;2.27;;
12163;SDS011;6145;50.192;10.064;2023-04-03T08:25:01;3.83;;;2.63;;
12163;SDS011;6145;50.192;10.064;2023-04-03T08:27:29;2.67;;;2.07;;
12163;SDS011;6145;50.192;10.064;2023-04-03T08:29:56;5.93;;;2.53;;
12163;SDS011;6145;50.192;10.064;2023-04-03T08:32:23;2.50;;;2.30;;
12163;SDS011;6145;50.192;10.064;2023-04-03T08:34:50;3.03;;;2.63;;
12163;SDS011;6145;50.192;10.064;2023-04-03T08:37:17;5.33;;;2.90;;
12163;SDS011;6145;50.192;10.064;2023-04-03T08:39:44;3.73;;;2.40;;
12163;SDS011;6145;50.192;10.064;2023-04-03T08:42:14;2.30;;;2.00;;
12163;SDS011;6145;50.192;10.064;2023-04-03T08:44:47;3.87;;;2.97;;
12163;SDS011;6145;50.192;10.064;2023-04-03T08:47:23;4.90;;;2.77;;
12163;SDS011;6145;50.192;10.064;2023-04-03T09:03:14;4.40;;;2.37;;
12163;SDS011;6145;50.192;10.064;2023-04-03T09:05:44;2.57;;;2.10;;
12163;SDS011;6145;50.192;10.064;2023-04-03T09:08:18;2.00;;;1.80;;
12163;SDS011;6145;50.192;10.064;2023-04-03T09:10:49;2.97;;;2.60;;
12163;SDS011;6145;50.192;10.064;2023-04-03T09:13:26;3.23;;;2.30;;
12163;SDS011;6145;50.192;10.064;2023-04-03T09:15:58;2.60;;;2.40;;
12163;SDS011;6145;50.192;10.064;2023-04-03T09:18:30;2.47;;;1.90;;
12163;SDS011;6145;50.192;10.064;2023-04-03T09:21:05;3.40;;;2.17;;
12163;SDS011;6145;50.192;10.064;2023-04-03T09:23:41;3.57;;;2.50;;
12163;SDS011;6145;50.192;10.064;2023-04-03T09:26:14;3.03;;;2.60;;
12163;SDS011;6145;50.192;10.064;2023-04-03T09:28:45;3.50;;;2.47;;
12163;SDS011;6145;50.192;10.064;2023-04-03T09:31:21;2.60;;;2.40;;
12163;SDS011;6145;50.192;10.064;2023-04-03T09:33:50;3.17;;;2.23;;
12163;SDS011;6145;50.192;10.064;2023-04-03T09:36:37;4.97;;;2.23;;
12163;SDS011;6145;50.192;10.064;2023-04-03T09:39:07;3.50;;;2.33;;
12163;SDS011;6145;50.192;10.064;2023-04-03T10:05:26;2.83;;;1.93;;
12163;SDS011;6145;50.192;10.064;2023-04-03T10:08:07;3.57;;;1.97;;
12163;SDS011;6145;50.192;10.064;2023-04-03T10:10:35;2.47;;;1.90;;
12163;SDS011;6145;50.192;10.064;2023-04-03T10:13:04;2.90;;;1.73;;
12163;SDS011;6145;50.192;10.064;2023-04-03T10:15:32;2.60;;;1.87;;
12163;SDS011;6145;50.192;10.064;2023-04-03T10:18:06;1.60;;;1.50;;
12163;SDS011;6145;50.192;10.064;2023-04-03T10:20:48;1.77;;;1.63;;
12163;SDS011;6145;50.192;10.064;2023-04-03T10:23:17;2.30;;;1.80;;
12163;SDS011;6145;50.192;10.064;2023-04-03T10:25:54;4.67;;;1.53;;
12163;SDS011;6145;50.192;10.064;2023-04-03T10:28:33;3.93;;;2.20;;
12163;SDS011;6145;50.192;10.064;2023-04-03T10:31:08;1.80;;;1.57;;
12163;SDS011;6145;50.192;10.064;2023-04-03T10:33:45;4.60;;;2.00;;
12163;SDS011;6145;50.192;10.064;2023-04-03T10:36:22;4.73;;;1.63;;
12163;SDS011;6145;50.192;10.064;2023-04-03T10:38:58;2.83;;;1.60;;
12163;SDS011;6145;50.192;10.064;2023-04-03T10:41:33;2.40;;;1.73;;
12163;SDS011;6145;50.192;10.064;2023-04-03T10:44:11;2.00;;;1.60;;
12163;SDS011;6145;50.192;10.064;2023-04-03T10:46:43;2.37;;;1.70;;
12163;SDS011;6145;50.192;10.064;2023-04-03T10:49:18;2.40;;;1.67;;
12163;SDS011;6145;50.192;10.064;2023-04-03T10:51:57;2.60;;;1.63;;
12163;SDS011;6145;50.192;10.064;2023-04-03T10:54:34;2.30;;;2.00;;
12163;SDS011;6145;50.192;10.064;2023-04-03T10:57:05;2.10;;;1.60;;
12163;SDS011;6145;50.192;10.064;2023-04-03T10:59:35;2.90;;;1.73;;
12163;SDS011;6145;50.192;10.064;2023-04-03T11:02:11;3.20;;;2.10;;
12163;SDS011;6145;50.192;10.064;2023-04-03T11:04:44;2.93;;;1.73;;
12163;SDS011;6145;50.192;10.064;2023-04-03T11:07:16;4.43;;;1.60;;
12163;SDS011;6145;50.192;10.064;2023-04-03T11:09:48;2.53;;;1.60;;
12163;SDS011;6145;50.192;10.064;2023-04-03T11:12:21;2.30;;;1.37;;
12163;SDS011;6145;50.192;10.064;2023-04-03T11:14:52;1.90;;;1.70;;
12163;SDS011;6145;50.192;10.064;2023-04-03T11:17:25;2.33;;;1.50;;
12163;SDS011;6145;50.192;10.064;2023-04-03T11:19:59;4.43;;;1.90;;
12163;SDS011;6145;50.192;10.064;2023-04-03T11:22:33;2.40;;;1.80;;
12163;SDS011;6145;50.192;10.064;2023-04-03T11:25:03;3.13;;;1.33;;
12163;SDS011;6145;50.192;10.064;2023-04-03T11:27:41;2.57;;;2.03;;
12163;SDS011;6145;50.192;10.064;2023-04-03T11:30:13;2.07;;;1.47;;
12163;SDS011;6145;50.192;10.064;2023-04-03T11:32:54;2.10;;;1.90;;
12163;SDS011;6145;50.192;10.064;2023-04-03T11:35:43;3.87;;;1.97;;
12163;SDS011;6145;50.192;10.064;2023-04-03T11:38:17;3.43;;;1.70;;
12163;SDS011;6145;50.192;10.064;2023-04-03T11:40:48;1.80;;;1.50;;
12163;SDS011;6145;50.192;10.064;2023-04-03T11:43:26;2.87;;;1.67;;
12163;SDS011;6145;50.192;10.064;2023-04-03T11:45:55;2.60;;;1.50;;
12163;SDS011;6145;50.192;10.064;2023-04-03T11:48:42;3.80;;;2.30;;
12163;SDS011;6145;50.192;10.064;2023-04-03T11:51:40;2.07;;;1.87;;
12163;SDS011;6145;50.192;10.064;2023-04-03T12:09:27;3.13;;;2.03;;
12163;SDS011;6145;50.192;10.064;2023-04-03T12:12:00;4.13;;;2.20;;
12163;SDS011;6145;50.192;10.064;2023-04-03T12:14:47;3.87;;;2.27;;
12163;SDS011;6145;50.192;10.064;2023-04-03T12:17:20;3.77;;;2.33;;
12163;SDS011;6145;50.192;10.064;2023-04-03T12:19:51;3.37;;;2.43;;
12163;SDS011;6145;50.192;10.064;2023-04-03T12:22:18;2.43;;;2.20;;
12163;SDS011;6145;50.192;10.064;2023-04-03T12:25:59;2.30;;;1.43;;
12163;SDS011;6145;50.192;10.064;2023-04-03T12:28:18;4.73;;;2.23;;
12163;SDS011;6145;50.192;10.064;2023-04-03T12:30:45;4.10;;;2.50;;
12163;SDS011;6145;50.192;10.064;2023-04-03T12:33:20;5.33;;;2.10;;
12163;SDS011;6145;50.192;10.064;2023-04-03T12:35:57;2.93;;;2.67;;
12163;SDS011;6145;50.192;10.064;2023-04-03T12:38:41;2.20;;;1.60;;
12163;SDS011;6145;50.192;10.064;2023-04-03T12:41:25;2.47;;;2.27;;
12163;SDS011;6145;50.192;10.064;2023-04-03T12:44:04;2.83;;;2.00;;
12163;SDS011;6145;50.192;10.064;2023-04-03T12:46:49;3.00;;;2.30;;
12163;SDS011;6145;50.192;10.064;2023-04-03T12:49:22;3.33;;;1.80;;
12163;SDS011;6145;50.192;10.064;2023-04-03T12:51:59;2.07;;;1.87;;
12163;SDS011;6145;50.192;10.064;2023-04-03T12:54:27;2.87;;;1.90;;
12163;SDS011;6145;50.192;10.064;2023-04-03T12:57:11;2.10;;;1.90;;
12163;SDS011;6145;50.192;10.064;2023-04-03T12:59:44;2.20;;;2.00;;
12163;SDS011;6145;50.192;10.064;2023-04-03T13:05:04;2.80;;;1.73;;
12163;SDS011;6145;50.192;10.064;2023-04-03T13:07:36;1.53;;;1.43;;
12163;SDS011;6145;50.192;10.064;2023-04-03T13:10:13;2.97;;;2.00;;
12163;SDS011;6145;50.192;10.064;2023-04-03T13:12:45;3.70;;;1.60;;
12163;SDS011;6145;50.192;10.064;2023-04-03T13:15:16;3.17;;;1.60;;
12163;SDS011;6145;50.192;10.064;2023-04-03T13:17:44;3.37;;;1.83;;
12163;SDS011;6145;50.192;10.064;2023-04-03T13:20:13;3.70;;;1.93;;
12163;SDS011;6145;50.192;10.064;2023-04-03T13:22:46;2.47;;;1.50;;
12163;SDS011;6145;50.192;10.064;2023-04-03T13:25:16;4.57;;;1.73;;
12163;SDS011;6145;50.192;10.064;2023-04-03T13:27:45;3.27;;;1.80;;
12163;SDS011;6145;50.192;10.064;2023-04-03T13:30:21;3.17;;;1.53;;
12163;SDS011;6145;50.192;10.064;2023-04-03T13:32:52;4.20;;;2.00;;
12163;SDS011;6145;50.192;10.064;2023-04-03T13:35:27;2.60;;;1.77;;
12163;SDS011;6145;50.192;10.064;2023-04-03T13:37:58;1.57;;;1.27;;
12163;SDS011;6145;50.192;10.064;2023-04-03T13:40:26;1.90;;;1.80;;
12163;SDS011;6145;50.192;10.064;2023-04-03T13:43:03;1.50;;;1.40;;
12163;SDS011;6145;50.192;10.064;2023-04-03T13:45:34;4.70;;;2.20;;
12163;SDS011;6145;50.192;10.064;2023-04-03T13:48:08;2.20;;;1.53;;
12163;SDS011;6145;50.192;10.064;2023-04-03T13:50:59;2.20;;;1.63;;
12163;SDS011;6145;50.192;10.064;2023-04-03T13:53:29;2.33;;;1.80;;
12163;SDS011;6145;50.192;10.064;2023-04-03T13:55:59;1.27;;;1.13;;
12163;SDS011;6145;50.192;10.064;2023-04-03T13:58:34;1.97;;;1.50;;
12163;SDS011;6145;50.192;10.064;2023-04-03T14:01:08;2.67;;;1.50;;
12163;SDS011;6145;50.192;10.064;2023-04-03T14:03:41;2.73;;;1.90;;
12163;SDS011;6145;50.192;10.064;2023-04-03T14:06:11;1.70;;;1.60;;
12163;SDS011;6145;50.192;10.064;2023-04-03T14:08:40;1.80;;;1.37;;
12163;SDS011;6145;50.192;10.064;2023-04-03T14:11:08;1.83;;;1.30;;
12163;SDS011;6145;50.192;10.064;2023-04-03T14:13:39;1.40;;;1.30;;
12163;SDS011;6145;50.192;10.064;2023-04-03T14:16:11;2.40;;;1.70;;
12163;SDS011;6145;50.192;10.064;2023-04-03T14:18:40;4.23;;;1.87;;
12163;SDS011;6145;50.192;10.064;2023-04-03T14:21:08;1.50;;;1.40;;
12163;SDS011;6145;50.192;10.064;2023-04-03T14:23:37;1.50;;;1.40;;
12163;SDS011;6145;50.192;10.064;2023-04-03T14:26:04;3.47;;;1.60;;
12163;SDS011;6145;50.192;10.064;2023-04-03T14:28:34;1.87;;;1.50;;
12163;SDS011;6145;50.192;10.064;2023-04-03T14:31:01;2.23;;;1.40;;
12163;SDS011;6145;50.192;10.064;2023-04-03T14:33:30;2.23;;;1.50;;
12163;SDS011;6145;50.192;10.064;2023-04-03T14:35:59;1.47;;;1.37;;
12163;SDS011;6145;50.192;10.064;2023-04-03T14:38:28;3.73;;;1.80;;
12163;SDS011;6145;50.192;10.064;2023-04-03T14:40:57;2.17;;;1.40;;
12163;SDS011;6145;50.192;10.064;2023-04-03T14:43:27;2.27;;;1.70;;
12163;SDS011;6145;50.192;10.064;2023-04-03T14:45:56;2.53;;;1.43;;
12163;SDS011;6145;50.192;10.064;2023-04-03T14:48:24;1.70;;;1.60;;
12163;SDS011;6145;50.192;10.064;2023-04-03T14:50:54;1.50;;;1.40;;
12163;SDS011;6145;50.192;10.064;2023-04-03T14:53:24;3.83;;;1.80;;
12163;SDS011;6145;50.192;10.064;2023-04-03T14:55:54;2.70;;;1.50;;
12163;SDS011;6145;50.192;10.064;2023-04-03T14:58:21;3.83;;;1.90;;
12163;SDS011;6145;50.192;10.064;2023-04-03T15:00:48;1.67;;;1.50;;
12163;SDS011;6145;50.192;10.064;2023-04-03T15:03:16;1.60;;;1.50;;
12163;SDS011;6145;50.192;10.064;2023-04-03T15:05:44;2.20;;;1.70;;
12163;SDS011;6145;50.192;10.064;2023-04-03T15:08:24;2.37;;;1.70;;
12163;SDS011;6145;50.192;10.064;2023-04-03T15:10:54;2.33;;;1.73;;
12163;SDS011;6145;50.192;10.064;2023-04-03T15:13:21;2.03;;;1.40;;
12163;SDS011;6145;50.192;10.064;2023-04-03T15:15:53;1.90;;;1.70;;
12163;SDS011;6145;50.192;10.064;2023-04-03T15:18:21;2.33;;;1.80;;
12163;SDS011;6145;50.192;10.064;2023-04-03T15:20:51;3.00;;;2.00;;
12163;SDS011;6145;50.192;10.064;2023-04-03T15:23:18;1.53;;;1.40;;
12163;SDS011;6145;50.192;10.064;2023-04-03T15:25:47;2.30;;;1.73;;
12163;SDS011;6145;50.192;10.064;2023-04-03T15:28:17;2.63;;;1.60;;
12163;SDS011;6145;50.192;10.064;2023-04-03T15:30:50;2.50;;;1.87;;
12163;SDS011;6145;50.192;10.064;2023-04-03T15:33:19;2.57;;;1.83;;
12163;SDS011;6145;50.192;10.064;2023-04-03T15:35:55;5.23;;;1.60;;
12163;SDS011;6145;50.192;10.064;2023-04-03T15:38:25;2.00;;;1.90;;
12163;SDS011;6145;50.192;10.064;2023-04-03T15:40:57;2.80;;;1.57;;
12163;SDS011;6145;50.192;10.064;2023-04-03T15:43:27;3.23;;;1.63;;
12163;SDS011;6145;50.192;10.064;2023-04-03T15:46:10;2.13;;;1.90;;
12163;SDS011;6145;50.192;10.064;2023-04-03T15:48:42;3.30;;;1.80;;
12163;SDS011;6145;50.192;10.064;2023-04-03T15:51:09;2.00;;;1.80;;
12163;SDS011;6145;50.192;10.064;2023-04-03T15:53:36;4.40;;;1.67;;
12163;SDS011;6145;50.192;10.064;2023-04-03T15:56:05;1.93;;;1.70;;
12163;SDS011;6145;50.192;10.064;2023-04-03T15:58:33;3.43;;;1.93;;
12163;SDS011;6145;50.192;10.064;2023-04-03T16:01:00;3.87;;;1.70;;
12163;SDS011;6145;50.192;10.064;2023-04-03T16:03:28;1.87;;;1.50;;
12163;SDS011;6145;50.192;10.064;2023-04-03T16:05:57;2.57;;;1.70;;
12163;SDS011;6145;50.192;10.064;2023-04-03T16:08:27;3.77;;;1.73;;
12163;SDS011;6145;50.192;10.064;2023-04-03T16:10:58;3.03;;;2.00;;
12163;SDS011;6145;50.192;10.064;2023-04-03T16:13:26;3.00;;;1.60;;
12163;SDS011;6145;50.192;10.064;2023-04-03T16:15:54;1.90;;;1.70;;
12163;SDS011;6145;50.192;10.064;2023-04-03T16:18:24;1.83;;;1.50;;
12163;SDS011;6145;50.192;10.064;2023-04-03T16:20:52;1.80;;;1.60;;
12163;SDS011;6145;50.192;10.064;2023-04-03T16:23:19;2.93;;;1.50;;
12163;SDS011;6145;50.192;10.064;2023-04-03T16:25:48;1.53;;;1.43;;
12163;SDS011;6145;50.192;10.064;2023-04-03T16:28:19;5.10;;;1.80;;
12163;SDS011;6145;50.192;10.064;2023-04-03T16:30:47;1.97;;;1.67;;
12163;SDS011;6145;50.192;10.064;2023-04-03T16:33:15;1.63;;;1.50;;
12163;SDS011;6145;50.192;10.064;2023-04-03T16:35:42;3.50;;;1.60;;
12163;SDS011;6145;50.192;10.064;2023-04-03T16:38:09;2.20;;;1.77;;
12163;SDS011;6145;50.192;10.064;2023-04-03T16:40:36;3.07;;;2.07;;
12163;SDS011;6145;50.192;10.064;2023-04-03T16:43:05;1.87;;;1.13;;
12163;SDS011;6145;50.192;10.064;2023-04-03T16:45:32;2.30;;;1.47;;
12163;SDS011;6145;50.192;10.064;2023-04-03T16:48:05;2.60;;;1.20;;
12163;SDS011;6145;50.192;10.064;2023-04-03T16:50:32;2.90;;;1.47;;
12163;SDS011;6145;50.192;10.064;2023-04-03T16:53:05;1.90;;;1.60;;
12163;SDS011;6145;50.192;10.064;2023-04-03T16:55:35;2.10;;;1.47;;
12163;SDS011;6145;50.192;10.064;2023-04-03T16:58:07;2.40;;;1.60;;
12163;SDS011;6145;50.192;10.064;2023-04-03T17:00:35;4.00;;;2.10;;
12163;SDS011;6145;50.192;10.064;2023-04-03T17:03:02;4.77;;;1.60;;
12163;SDS011;6145;50.192;10.064;2023-04-03T17:05:32;2.37;;;1.43;;
12163;SDS011;6145;50.192;10.064;2023-04-03T17:08:03;1.93;;;1.67;;
12163;SDS011;6145;50.192;10.064;2023-04-03T17:10:30;2.80;;;1.53;;
12163;SDS011;6145;50.192;10.064;2023-04-03T17:12:58;2.20;;;1.50;;
12163;SDS011;6145;50.192;10.064;2023-04-03T17:15:25;2.53;;;1.40;;
12163;SDS011;6145;50.192;10.064;2023-04-03T17:17:53;1.30;;;1.20;;
12163;SDS011;6145;50.192;10.064;2023-04-03T17:20:21;2.90;;;1.90;;
12163;SDS011;6145;50.192;10.064;2023-04-03T17:22:49;2.90;;;1.77;;
12163;SDS011;6145;50.192;10.064;2023-04-03T17:25:22;1.40;;;1.30;;
12163;SDS011;6145;50.192;10.064;2023-04-03T17:27:49;3.03;;;1.63;;
12163;SDS011;6145;50.192;10.064;2023-04-03T17:30:16;3.80;;;1.57;;
12163;SDS011;6145;50.192;10.064;2023-04-03T17:32:43;3.27;;;1.80;;
12163;SDS011;6145;50.192;10.064;2023-04-03T17:35:18;3.00;;;1.70;;
12163;SDS011;6145;50.192;10.064;2023-04-03T17:37:48;2.77;;;1.73;;
12163;SDS011;6145;50.192;10.064;2023-04-03T17:40:17;2.90;;;1.70;;
12163;SDS011;6145;50.192;10.064;2023-04-03T17:42:44;3.93;;;1.87;;
12163;SDS011;6145;50.192;10.064;2023-04-03T17:45:11;1.47;;;1.37;;
12163;SDS011;6145;50.192;10.064;2023-04-03T17:47:38;2.10;;;1.80;;
12163;SDS011;6145;50.192;10.064;2023-04-03T17:50:08;1.90;;;1.53;;
12163;SDS011;6145;50.192;10.064;2023-04-03T17:52:43;3.87;;;1.80;;
12163;SDS011;6145;50.192;10.064;2023-04-03T17:55:11;3.00;;;1.80;;
12163;SDS011;6145;50.192;10.064;2023-04-03T17:57:44;2.03;;;1.67;;
12163;SDS011;6145;50.192;10.064;2023-04-03T18:00:11;3.53;;;2.53;;
12163;SDS011;6145;50.192;10.064;2023-04-03T18:09:00;4.00;;;1.87;;
12163;SDS011;6145;50.192;10.064;2023-04-03T18:11:31;3.27;;;2.17;;
12163;SDS011;6145;50.192;10.064;2023-04-03T18:13:59;1.90;;;1.70;;
12163;SDS011;6145;50.192;10.064;2023-04-03T18:16:28;4.77;;;2.47;;
12163;SDS011;6145;50.192;10.064;2023-04-03T18:18:55;3.93;;;2.07;;
12163;SDS011;6145;50.192;10.064;2023-04-03T18:21:22;2.57;;;2.20;;
12163;SDS011;6145;50.192;10.064;2023-04-03T18:23:52;2.70;;;2.40;;
12163;SDS011;6145;50.192;10.064;2023-04-03T18:26:21;2.47;;;2.07;;
12163;SDS011;6145;50.192;10.064;2023-04-03T18:28:54;1.10;;;1.00;;
12163;SDS011;6145;50.192;10.064;2023-04-03T18:31:25;4.50;;;1.80;;
12163;SDS011;6145;50.192;10.064;2023-04-03T18:33:53;5.93;;;2.37;;
12163;SDS011;6145;50.192;10.064;2023-04-03T18:36:23;3.13;;;1.80;;
12163;SDS011;6145;50.192;10.064;2023-04-03T18:38:51;3.17;;;2.10;;
12163;SDS011;6145;50.192;10.064;2023-04-03T18:41:18;2.20;;;1.80;;
12163;SDS011;6145;50.192;10.064;2023-04-03T18:43:46;2.57;;;2.10;;
12163;SDS011;6145;50.192;10.064;2023-04-03T18:46:14;3.17;;;2.47;;
12163;SDS011;6145;50.192;10.064;2023-04-03T18:48:41;3.17;;;1.97;;
12163;SDS011;6145;50.192;10.064;2023-04-03T18:51:10;2.57;;;1.80;;
12163;SDS011;6145;50.192;10.064;2023-04-03T18:53:38;4.80;;;1.90;;
12163;SDS011;6145;50.192;10.064;2023-04-03T18:56:05;3.47;;;2.23;;
12163;SDS011;6145;50.192;10.064;2023-04-03T18:58:32;4.17;;;2.00;;
12163;SDS011;6145;50.192;10.064;2023-04-03T19:04:22;2.17;;;1.70;;
12163;SDS011;6145;50.192;10.064;2023-04-03T19:06:51;3.30;;;1.87;;
12163;SDS011;6145;50.192;10.064;2023-04-03T19:09:18;1.80;;;1.70;;
12163;SDS011;6145;50.192;10.064;2023-04-03T19:11:48;2.63;;;1.90;;
12163;SDS011;6145;50.192;10.064;2023-04-03T19:14:15;3.07;;;2.07;;
12163;SDS011;6145;50.192;10.064;2023-04-03T19:16:44;5.33;;;2.07;;
12163;SDS011;6145;50.192;10.064;2023-04-03T19:19:12;4.30;;;2.00;;
12163;SDS011;6145;50.192;10.064;2023-04-03T19:21:40;4.97;;;2.27;;
12163;SDS011;6145;50.192;10.064;2023-04-03T19:24:11;3.93;;;2.27;;
12163;SDS011;6145;50.192;10.064;2023-04-03T19:26:39;2.03;;;1.83;;
12163;SDS011;6145;50.192;10.064;2023-04-03T19:29:08;4.30;;;2.20;;
12163;SDS011;6145;50.192;10.064;2023-04-03T19:31:53;3.53;;;1.80;;
12163;SDS011;6145;50.192;10.064;2023-04-03T19:34:20;4.10;;;1.97;;
12163;SDS011;6145;50.192;10.064;2023-04-03T19:36:50;2.63;;;2.40;;
12163;SDS011;6145;50.192;10.064;2023-04-03T19:39:17;4.20;;;2.10;;
12163;SDS011;6145;50.192;10.064;2023-04-03T19:41:44;2.40;;;1.97;;
12163;SDS011;6145;50.192;10.064;2023-04-03T19:44:11;4.67;;;2.30;;
12163;SDS011;6145;50.192;10.064;2023-04-03T19:46:38;3.10;;;1.90;;
12163;SDS011;6145;50.192;10.064;2023-04-03T19:49:05;2.77;;;2.20;;
12163;SDS011;6145;50.192;10.064;2023-04-03T19:51:34;2.47;;;1.90;;
12163;SDS011;6145;50.192;10.064;2023-04-03T19:54:03;4.60;;;2.00;;
12163;SDS011;6145;50.192;10.064;2023-04-03T19:56:30;3.37;;;2.37;;
